sensor_id;sensor_type;location;lat;lon;timestamp;P1;durP1;ratioP1;P2;durP2;ratioP2
57231;SDS011;43488;46.934;8.276;2022-12-11T00:00:27;441.35;;;322.73;;
57231;SDS011;43488;46.934;8.276;2022-12-11T00:02:56;446.08;;;235.93;;
57231;SDS011;43488;46.934;8.276;2022-12-11T00:05:23;453.08;;;248.23;;
57231;SDS011;43488;46.934;8.276;2022-12-11T00:07:50;421.58;;;305.73;;
57231;SDS011;43488;46.934;8.276;2022-12-11T00:10:17;419.27;;;305.77;;
57231;SDS011;43488;46.934;8.276;2022-12-11T00:12:45;448.15;;;233.50;;
57231;SDS011;43488;46.934;8.276;2022-12-11T00:15:12;446.05;;;227.82;;
57231;SDS011;43488;46.934;8.276;2022-12-11T00:17:40;436.75;;;319.42;;
57231;SDS011;43488;46.934;8.276;2022-12-11T00:20:08;455.98;;;238.05;;
57231;SDS011;43488;46.934;8.276;2022-12-11T00:22:35;454.08;;;242.63;;
57231;SDS011;43488;46.934;8.276;2022-12-11T00:25:03;441.33;;;227.23;;
57231;SDS011;43488;46.934;8.276;2022-12-11T00:27:31;427.98;;;323.55;;
57231;SDS011;43488;46.934;8.276;2022-12-11T00:29:58;450.02;;;230.63;;
57231;SDS011;43488;46.934;8.276;2022-12-11T00:32:26;428.77;;;320.90;;
57231;SDS011;43488;46.934;8.276;2022-12-11T00:34:53;464.40;;;251.13;;
57231;SDS011;43488;46.934;8.276;2022-12-11T00:37:21;450.05;;;230.55;;
57231;SDS011;43488;46.934;8.276;2022-12-11T00:39:50;455.35;;;235.85;;
57231;SDS011;43488;46.934;8.276;2022-12-11T00:42:18;422.42;;;304.80;;
57231;SDS011;43488;46.934;8.276;2022-12-11T00:44:45;426.30;;;303.45;;
57231;SDS011;43488;46.934;8.276;2022-12-11T00:47:12;453.50;;;241.93;;
57231;SDS011;43488;46.934;8.276;2022-12-11T00:49:40;434.90;;;315.10;;
57231;SDS011;43488;46.934;8.276;2022-12-11T00:52:07;447.38;;;232.02;;
57231;SDS011;43488;46.934;8.276;2022-12-11T00:54:36;449.23;;;242.15;;
57231;SDS011;43488;46.934;8.276;2022-12-11T00:57:03;453.40;;;240.27;;
57231;SDS011;43488;46.934;8.276;2022-12-11T00:59:30;448.05;;;236.82;;
57231;SDS011;43488;46.934;8.276;2022-12-11T01:01:57;426.65;;;325.70;;
57231;SDS011;43488;46.934;8.276;2022-12-11T01:04:25;440.63;;;228.98;;
57231;SDS011;43488;46.934;8.276;2022-12-11T01:06:52;430.45;;;323.15;;
57231;SDS011;43488;46.934;8.276;2022-12-11T01:09:19;469.42;;;259.98;;
57231;SDS011;43488;46.934;8.276;2022-12-11T01:12:05;453.10;;;235.23;;
57231;SDS011;43488;46.934;8.276;2022-12-11T01:14:33;435.15;;;317.10;;
57231;SDS011;43488;46.934;8.276;2022-12-11T01:17:00;447.42;;;233.05;;
57231;SDS011;43488;46.934;8.276;2022-12-11T01:19:28;452.17;;;226.05;;
57231;SDS011;43488;46.934;8.276;2022-12-11T01:21:56;452.67;;;333.23;;
57231;SDS011;43488;46.934;8.276;2022-12-11T01:24:23;438.45;;;325.55;;
57231;SDS011;43488;46.934;8.276;2022-12-11T01:26:50;457.00;;;247.00;;
57231;SDS011;43488;46.934;8.276;2022-12-11T01:29:17;440.77;;;326.42;;
57231;SDS011;43488;46.934;8.276;2022-12-11T01:31:45;451.10;;;335.48;;
57231;SDS011;43488;46.934;8.276;2022-12-11T01:34:13;427.25;;;305.27;;
57231;SDS011;43488;46.934;8.276;2022-12-11T01:36:40;432.48;;;219.85;;
57231;SDS011;43488;46.934;8.276;2022-12-11T01:39:07;418.27;;;307.65;;
57231;SDS011;43488;46.934;8.276;2022-12-11T01:41:35;439.17;;;345.10;;
57231;SDS011;43488;46.934;8.276;2022-12-11T01:44:06;454.15;;;247.05;;
57231;SDS011;43488;46.934;8.276;2022-12-11T01:46:56;428.17;;;317.95;;
57231;SDS011;43488;46.934;8.276;2022-12-11T01:49:24;445.90;;;234.60;;
57231;SDS011;43488;46.934;8.276;2022-12-11T01:51:58;422.30;;;300.63;;
57231;SDS011;43488;46.934;8.276;2022-12-11T01:54:37;435.77;;;336.75;;
57231;SDS011;43488;46.934;8.276;2022-12-11T01:57:05;438.83;;;220.52;;
57231;SDS011;43488;46.934;8.276;2022-12-11T01:59:40;436.42;;;319.92;;
57231;SDS011;43488;46.934;8.276;2022-12-11T02:02:14;446.83;;;331.25;;
57231;SDS011;43488;46.934;8.276;2022-12-11T02:04:56;447.65;;;228.18;;
57231;SDS011;43488;46.934;8.276;2022-12-11T02:07:24;428.15;;;322.42;;
57231;SDS011;43488;46.934;8.276;2022-12-11T02:09:51;461.13;;;248.82;;
57231;SDS011;43488;46.934;8.276;2022-12-11T02:15:33;453.88;;;228.20;;
57231;SDS011;43488;46.934;8.276;2022-12-11T02:20:59;424.25;;;315.48;;
57231;SDS011;43488;46.934;8.276;2022-12-11T02:29:38;443.05;;;318.15;;
57231;SDS011;43488;46.934;8.276;2022-12-11T02:37:57;454.88;;;236.30;;
57231;SDS011;43488;46.934;8.276;2022-12-11T02:40:41;457.77;;;245.85;;
57231;SDS011;43488;46.934;8.276;2022-12-11T02:43:12;440.75;;;319.05;;
57231;SDS011;43488;46.934;8.276;2022-12-11T02:45:42;459.33;;;251.88;;
57231;SDS011;43488;46.934;8.276;2022-12-11T02:48:12;429.77;;;323.15;;
57231;SDS011;43488;46.934;8.276;2022-12-11T02:50:44;448.25;;;230.18;;
57231;SDS011;43488;46.934;8.276;2022-12-11T02:53:16;450.38;;;237.20;;
57231;SDS011;43488;46.934;8.276;2022-12-11T02:55:52;434.45;;;313.42;;
57231;SDS011;43488;46.934;8.276;2022-12-11T02:58:32;431.35;;;301.95;;
57231;SDS011;43488;46.934;8.276;2022-12-11T03:01:04;463.02;;;248.52;;
57231;SDS011;43488;46.934;8.276;2022-12-11T03:03:31;457.20;;;237.40;;
57231;SDS011;43488;46.934;8.276;2022-12-11T03:05:58;429.80;;;316.50;;
57231;SDS011;43488;46.934;8.276;2022-12-11T03:08:26;443.38;;;319.05;;
57231;SDS011;43488;46.934;8.276;2022-12-11T03:10:53;439.50;;;312.23;;
57231;SDS011;43488;46.934;8.276;2022-12-11T03:13:21;462.25;;;243.05;;
57231;SDS011;43488;46.934;8.276;2022-12-11T03:15:56;441.90;;;324.05;;
57231;SDS011;43488;46.934;8.276;2022-12-11T03:18:35;460.08;;;248.98;;
57231;SDS011;43488;46.934;8.276;2022-12-11T03:21:26;456.33;;;238.55;;
57231;SDS011;43488;46.934;8.276;2022-12-11T03:26:35;441.33;;;308.38;;
57231;SDS011;43488;46.934;8.276;2022-12-11T03:29:21;434.65;;;324.60;;
57231;SDS011;43488;46.934;8.276;2022-12-11T03:32:00;438.50;;;314.10;;
57231;SDS011;43488;46.934;8.276;2022-12-11T03:38:04;445.63;;;228.45;;
57231;SDS011;43488;46.934;8.276;2022-12-11T03:40:37;446.08;;;315.58;;
57231;SDS011;43488;46.934;8.276;2022-12-11T03:43:07;439.90;;;324.92;;
57231;SDS011;43488;46.934;8.276;2022-12-11T03:45:37;459.15;;;243.20;;
57231;SDS011;43488;46.934;8.276;2022-12-11T03:48:07;427.20;;;312.42;;
57231;SDS011;43488;46.934;8.276;2022-12-11T03:50:37;449.30;;;316.10;;
57231;SDS011;43488;46.934;8.276;2022-12-11T03:53:07;435.17;;;304.98;;
57231;SDS011;43488;46.934;8.276;2022-12-11T03:55:36;462.85;;;247.00;;
57231;SDS011;43488;46.934;8.276;2022-12-11T03:58:05;439.55;;;303.85;;
57231;SDS011;43488;46.934;8.276;2022-12-11T04:00:33;457.45;;;324.60;;
57231;SDS011;43488;46.934;8.276;2022-12-11T04:03:01;453.83;;;318.90;;
57231;SDS011;43488;46.934;8.276;2022-12-11T04:05:42;454.85;;;326.10;;
57231;SDS011;43488;46.934;8.276;2022-12-11T04:08:16;443.55;;;312.42;;
57231;SDS011;43488;46.934;8.276;2022-12-11T04:10:46;448.10;;;311.73;;
57231;SDS011;43488;46.934;8.276;2022-12-11T04:13:14;444.73;;;309.10;;
57231;SDS011;43488;46.934;8.276;2022-12-11T04:15:42;457.33;;;334.00;;
57231;SDS011;43488;46.934;8.276;2022-12-11T04:18:09;458.55;;;237.73;;
57231;SDS011;43488;46.934;8.276;2022-12-11T04:20:55;459.80;;;232.07;;
57231;SDS011;43488;46.934;8.276;2022-12-11T04:23:41;459.48;;;233.57;;
57231;SDS011;43488;46.934;8.276;2022-12-11T04:26:28;454.08;;;329.08;;
57231;SDS011;43488;46.934;8.276;2022-12-11T04:28:55;458.25;;;235.25;;
57231;SDS011;43488;46.934;8.276;2022-12-11T04:31:22;468.42;;;243.77;;
57231;SDS011;43488;46.934;8.276;2022-12-11T04:33:50;457.67;;;242.73;;
57231;SDS011;43488;46.934;8.276;2022-12-11T04:36:17;469.55;;;247.48;;
57231;SDS011;43488;46.934;8.276;2022-12-11T04:38:44;475.33;;;259.80;;
57231;SDS011;43488;46.934;8.276;2022-12-11T04:41:12;443.35;;;319.60;;
57231;SDS011;43488;46.934;8.276;2022-12-11T04:43:41;469.75;;;247.85;;
57231;SDS011;43488;46.934;8.276;2022-12-11T04:46:13;443.30;;;317.77;;
57231;SDS011;43488;46.934;8.276;2022-12-11T04:48:44;436.92;;;317.77;;
57231;SDS011;43488;46.934;8.276;2022-12-11T04:51:12;433.38;;;306.15;;
57231;SDS011;43488;46.934;8.276;2022-12-11T04:53:40;444.20;;;322.70;;
57231;SDS011;43488;46.934;8.276;2022-12-11T04:56:09;468.90;;;249.20;;
57231;SDS011;43488;46.934;8.276;2022-12-11T04:58:41;445.73;;;328.52;;
57231;SDS011;43488;46.934;8.276;2022-12-11T05:01:10;466.90;;;240.77;;
57231;SDS011;43488;46.934;8.276;2022-12-11T05:03:43;441.20;;;321.70;;
57231;SDS011;43488;46.934;8.276;2022-12-11T05:06:12;458.63;;;238.02;;
57231;SDS011;43488;46.934;8.276;2022-12-11T05:08:40;432.38;;;316.27;;
57231;SDS011;43488;46.934;8.276;2022-12-11T05:11:09;440.23;;;309.98;;
57231;SDS011;43488;46.934;8.276;2022-12-11T05:13:39;462.80;;;350.23;;
57231;SDS011;43488;46.934;8.276;2022-12-11T05:16:08;456.38;;;241.30;;
57231;SDS011;43488;46.934;8.276;2022-12-11T05:18:38;463.35;;;244.98;;
57231;SDS011;43488;46.934;8.276;2022-12-11T05:21:07;452.50;;;236.23;;
57231;SDS011;43488;46.934;8.276;2022-12-11T05:23:37;443.35;;;325.10;;
57231;SDS011;43488;46.934;8.276;2022-12-11T05:26:05;465.85;;;239.63;;
57231;SDS011;43488;46.934;8.276;2022-12-11T05:28:38;458.67;;;339.60;;
57231;SDS011;43488;46.934;8.276;2022-12-11T05:31:07;463.00;;;246.02;;
57231;SDS011;43488;46.934;8.276;2022-12-11T05:33:40;459.98;;;247.63;;
57231;SDS011;43488;46.934;8.276;2022-12-11T05:36:12;462.38;;;244.52;;
57231;SDS011;43488;46.934;8.276;2022-12-11T05:38:45;437.77;;;307.38;;
57231;SDS011;43488;46.934;8.276;2022-12-11T05:41:13;442.95;;;311.90;;
57231;SDS011;43488;46.934;8.276;2022-12-11T05:43:44;458.40;;;329.30;;
57231;SDS011;43488;46.934;8.276;2022-12-11T05:46:13;438.13;;;313.25;;
57231;SDS011;43488;46.934;8.276;2022-12-11T05:48:43;462.87;;;250.17;;
57231;SDS011;43488;46.934;8.276;2022-12-11T05:51:15;460.45;;;234.88;;
57231;SDS011;43488;46.934;8.276;2022-12-11T05:53:45;464.30;;;242.45;;
57231;SDS011;43488;46.934;8.276;2022-12-11T05:56:17;442.52;;;318.48;;
57231;SDS011;43488;46.934;8.276;2022-12-11T05:58:57;450.10;;;336.80;;
57231;SDS011;43488;46.934;8.276;2022-12-11T06:01:31;458.38;;;245.80;;
57231;SDS011;43488;46.934;8.276;2022-12-11T06:04:05;436.95;;;313.20;;
57231;SDS011;43488;46.934;8.276;2022-12-11T06:06:35;447.92;;;321.67;;
57231;SDS011;43488;46.934;8.276;2022-12-11T06:09:03;446.23;;;344.88;;
57231;SDS011;43488;46.934;8.276;2022-12-11T06:11:32;448.08;;;230.07;;
57231;SDS011;43488;46.934;8.276;2022-12-11T06:14:00;436.40;;;308.52;;
57231;SDS011;43488;46.934;8.276;2022-12-11T06:16:29;461.42;;;248.65;;
57231;SDS011;43488;46.934;8.276;2022-12-11T06:18:57;465.35;;;252.02;;
57231;SDS011;43488;46.934;8.276;2022-12-11T06:21:26;454.58;;;236.60;;
57231;SDS011;43488;46.934;8.276;2022-12-11T06:23:59;466.05;;;255.15;;
57231;SDS011;43488;46.934;8.276;2022-12-11T06:26:29;466.50;;;257.50;;
57231;SDS011;43488;46.934;8.276;2022-12-11T06:28:57;437.10;;;311.02;;
57231;SDS011;43488;46.934;8.276;2022-12-11T06:31:25;445.65;;;332.70;;
57231;SDS011;43488;46.934;8.276;2022-12-11T06:33:53;461.27;;;241.68;;
57231;SDS011;43488;46.934;8.276;2022-12-11T06:36:22;460.75;;;248.70;;
57231;SDS011;43488;46.934;8.276;2022-12-11T06:38:51;440.15;;;330.88;;
57231;SDS011;43488;46.934;8.276;2022-12-11T06:41:18;441.08;;;332.88;;
57231;SDS011;43488;46.934;8.276;2022-12-11T06:43:46;464.45;;;251.23;;
57231;SDS011;43488;46.934;8.276;2022-12-11T06:46:15;428.92;;;318.63;;
57231;SDS011;43488;46.934;8.276;2022-12-11T06:48:45;439.67;;;335.40;;
57231;SDS011;43488;46.934;8.276;2022-12-11T06:51:15;424.25;;;307.73;;
57231;SDS011;43488;46.934;8.276;2022-12-11T06:53:49;432.00;;;328.57;;
57231;SDS011;43488;46.934;8.276;2022-12-11T06:56:21;448.48;;;241.65;;
57231;SDS011;43488;46.934;8.276;2022-12-11T06:58:50;441.92;;;337.50;;
57231;SDS011;43488;46.934;8.276;2022-12-11T07:01:21;449.13;;;343.85;;
57231;SDS011;43488;46.934;8.276;2022-12-11T07:03:52;423.85;;;314.45;;
57231;SDS011;43488;46.934;8.276;2022-12-11T07:06:21;427.10;;;320.63;;
57231;SDS011;43488;46.934;8.276;2022-12-11T07:08:49;429.05;;;323.35;;
57231;SDS011;43488;46.934;8.276;2022-12-11T07:11:18;451.00;;;237.23;;
57231;SDS011;43488;46.934;8.276;2022-12-11T07:13:47;425.55;;;309.98;;
57231;SDS011;43488;46.934;8.276;2022-12-11T07:16:16;436.08;;;334.92;;
57231;SDS011;43488;46.934;8.276;2022-12-11T07:18:48;451.42;;;235.82;;
57231;SDS011;43488;46.934;8.276;2022-12-11T07:21:17;461.15;;;361.75;;
57231;SDS011;43488;46.934;8.276;2022-12-11T07:23:47;452.33;;;241.27;;
57231;SDS011;43488;46.934;8.276;2022-12-11T07:26:19;438.07;;;330.10;;
57231;SDS011;43488;46.934;8.276;2022-12-11T07:28:48;459.27;;;258.33;;
57231;SDS011;43488;46.934;8.276;2022-12-11T07:31:18;446.30;;;242.80;;
57231;SDS011;43488;46.934;8.276;2022-12-11T07:33:55;442.08;;;339.45;;
57231;SDS011;43488;46.934;8.276;2022-12-11T07:36:25;434.75;;;332.88;;
57231;SDS011;43488;46.934;8.276;2022-12-11T07:38:54;458.77;;;252.35;;
57231;SDS011;43488;46.934;8.276;2022-12-11T07:41:21;448.83;;;238.20;;
57231;SDS011;43488;46.934;8.276;2022-12-11T07:43:49;445.23;;;330.83;;
57231;SDS011;43488;46.934;8.276;2022-12-11T07:46:18;451.17;;;325.17;;
57231;SDS011;43488;46.934;8.276;2022-12-11T07:48:50;431.25;;;314.55;;
57231;SDS011;43488;46.934;8.276;2022-12-11T07:51:36;453.00;;;332.42;;
57231;SDS011;43488;46.934;8.276;2022-12-11T07:54:05;464.75;;;253.02;;
57231;SDS011;43488;46.934;8.276;2022-12-11T07:56:37;458.52;;;242.23;;
57231;SDS011;43488;46.934;8.276;2022-12-11T07:59:05;450.85;;;343.40;;
57231;SDS011;43488;46.934;8.276;2022-12-11T08:01:33;459.65;;;232.77;;
57231;SDS011;43488;46.934;8.276;2022-12-11T08:04:03;456.95;;;243.63;;
57231;SDS011;43488;46.934;8.276;2022-12-11T08:06:33;464.75;;;250.95;;
57231;SDS011;43488;46.934;8.276;2022-12-11T08:11:35;434.15;;;302.00;;
57231;SDS011;43488;46.934;8.276;2022-12-11T08:14:03;459.75;;;239.82;;
57231;SDS011;43488;46.934;8.276;2022-12-11T08:16:32;467.50;;;246.25;;
57231;SDS011;43488;46.934;8.276;2022-12-11T08:18:59;462.15;;;252.75;;
57231;SDS011;43488;46.934;8.276;2022-12-11T08:21:26;457.85;;;349.38;;
57231;SDS011;43488;46.934;8.276;2022-12-11T08:23:54;460.27;;;238.35;;
57231;SDS011;43488;46.934;8.276;2022-12-11T08:26:24;454.20;;;321.20;;
57231;SDS011;43488;46.934;8.276;2022-12-11T08:28:54;456.67;;;322.60;;
57231;SDS011;43488;46.934;8.276;2022-12-11T08:31:22;460.10;;;328.88;;
57231;SDS011;43488;46.934;8.276;2022-12-11T08:33:50;450.33;;;330.15;;
57231;SDS011;43488;46.934;8.276;2022-12-11T08:36:19;462.33;;;334.38;;
57231;SDS011;43488;46.934;8.276;2022-12-11T08:38:48;448.30;;;330.50;;
57231;SDS011;43488;46.934;8.276;2022-12-11T08:41:23;458.02;;;327.65;;
57231;SDS011;43488;46.934;8.276;2022-12-11T08:43:55;445.45;;;315.90;;
57231;SDS011;43488;46.934;8.276;2022-12-11T08:46:25;468.20;;;242.50;;
57231;SDS011;43488;46.934;8.276;2022-12-11T08:48:55;440.95;;;309.05;;
57231;SDS011;43488;46.934;8.276;2022-12-11T08:51:24;445.70;;;321.30;;
57231;SDS011;43488;46.934;8.276;2022-12-11T08:53:53;473.23;;;250.27;;
57231;SDS011;43488;46.934;8.276;2022-12-11T08:56:27;454.83;;;329.23;;
57231;SDS011;43488;46.934;8.276;2022-12-11T08:58:57;472.92;;;248.55;;
57231;SDS011;43488;46.934;8.276;2022-12-11T09:01:26;470.77;;;252.93;;
57231;SDS011;43488;46.934;8.276;2022-12-11T09:03:54;471.42;;;247.15;;
57231;SDS011;43488;46.934;8.276;2022-12-11T09:06:23;470.30;;;253.63;;
57231;SDS011;43488;46.934;8.276;2022-12-11T09:08:53;467.20;;;328.87;;
57231;SDS011;43488;46.934;8.276;2022-12-11T09:11:27;469.77;;;248.43;;
57231;SDS011;43488;46.934;8.276;2022-12-11T09:14:01;475.02;;;352.02;;
57231;SDS011;43488;46.934;8.276;2022-12-11T09:16:29;450.60;;;323.95;;
57231;SDS011;43488;46.934;8.276;2022-12-11T09:18:57;479.77;;;246.30;;
57231;SDS011;43488;46.934;8.276;2022-12-11T09:21:27;476.00;;;251.82;;
57231;SDS011;43488;46.934;8.276;2022-12-11T09:23:57;469.38;;;337.02;;
57231;SDS011;43488;46.934;8.276;2022-12-11T09:26:28;481.35;;;348.15;;
57231;SDS011;43488;46.934;8.276;2022-12-11T09:28:56;477.90;;;346.52;;
57231;SDS011;43488;46.934;8.276;2022-12-11T09:31:26;465.02;;;334.58;;
57231;SDS011;43488;46.934;8.276;2022-12-11T09:33:56;481.83;;;250.60;;
57231;SDS011;43488;46.934;8.276;2022-12-11T09:36:26;483.25;;;264.25;;
57231;SDS011;43488;46.934;8.276;2022-12-11T09:39:00;461.10;;;324.35;;
57231;SDS011;43488;46.934;8.276;2022-12-11T09:41:39;477.75;;;247.13;;
57231;SDS011;43488;46.934;8.276;2022-12-11T09:44:50;466.38;;;333.50;;
57231;SDS011;43488;46.934;8.276;2022-12-11T09:47:26;455.30;;;316.33;;
57231;SDS011;43488;46.934;8.276;2022-12-11T09:55:22;483.83;;;247.50;;
57231;SDS011;43488;46.934;8.276;2022-12-11T09:58:05;451.40;;;316.63;;
57231;SDS011;43488;46.934;8.276;2022-12-11T10:05:03;498.88;;;267.70;;
57231;SDS011;43488;46.934;8.276;2022-12-11T10:07:31;467.20;;;331.27;;
57231;SDS011;43488;46.934;8.276;2022-12-11T10:10:45;475.48;;;341.85;;
57231;SDS011;43488;46.934;8.276;2022-12-11T10:19:19;480.73;;;243.02;;
57231;SDS011;43488;46.934;8.276;2022-12-11T10:22:16;477.58;;;252.18;;
57231;SDS011;43488;46.934;8.276;2022-12-11T10:24:51;492.33;;;247.90;;
57231;SDS011;43488;46.934;8.276;2022-12-11T10:27:24;481.45;;;241.77;;
57231;SDS011;43488;46.934;8.276;2022-12-11T10:32:44;470.95;;;330.73;;
57231;SDS011;43488;46.934;8.276;2022-12-11T10:35:30;504.48;;;255.75;;
57231;SDS011;43488;46.934;8.276;2022-12-11T10:41:11;492.65;;;249.68;;
57231;SDS011;43488;46.934;8.276;2022-12-11T10:43:48;496.38;;;355.35;;
57231;SDS011;43488;46.934;8.276;2022-12-11T10:48:56;525.13;;;267.63;;
57231;SDS011;43488;46.934;8.276;2022-12-11T10:54:04;540.42;;;330.23;;
57231;SDS011;43488;46.934;8.276;2022-12-11T10:56:44;571.60;;;240.65;;
57231;SDS011;43488;46.934;8.276;2022-12-11T10:59:24;603.55;;;266.65;;
57231;SDS011;43488;46.934;8.276;2022-12-11T11:02:04;574.55;;;331.80;;
57231;SDS011;43488;46.934;8.276;2022-12-11T11:04:42;614.13;;;268.25;;
57231;SDS011;43488;46.934;8.276;2022-12-11T11:07:11;629.83;;;286.83;;
57231;SDS011;43488;46.934;8.276;2022-12-11T11:09:44;607.50;;;359.70;;
57231;SDS011;43488;46.934;8.276;2022-12-11T11:12:48;594.80;;;311.38;;
57231;SDS011;43488;46.934;8.276;2022-12-11T11:15:11;595.58;;;343.40;;
57231;SDS011;43488;46.934;8.276;2022-12-11T11:17:48;716.97;;;251.52;;
57231;SDS011;43488;46.934;8.276;2022-12-11T11:20:26;601.55;;;351.17;;
57231;SDS011;43488;46.934;8.276;2022-12-11T11:22:56;634.15;;;396.33;;
57231;SDS011;43488;46.934;8.276;2022-12-11T11:25:28;628.10;;;388.60;;
57231;SDS011;43488;46.934;8.276;2022-12-11T11:30:37;633.45;;;382.60;;
57231;SDS011;43488;46.934;8.276;2022-12-11T11:33:14;649.33;;;335.40;;
57231;SDS011;43488;46.934;8.276;2022-12-11T11:36:05;644.20;;;325.10;;
57231;SDS011;43488;46.934;8.276;2022-12-11T11:38:52;648.40;;;337.27;;
57231;SDS011;43488;46.934;8.276;2022-12-11T11:41:51;644.58;;;322.05;;
57231;SDS011;43488;46.934;8.276;2022-12-11T11:44:41;625.42;;;373.98;;
57231;SDS011;43488;46.934;8.276;2022-12-11T11:47:25;634.17;;;305.95;;
57231;SDS011;43488;46.934;8.276;2022-12-11T11:53:08;634.67;;;323.27;;
57231;SDS011;43488;46.934;8.276;2022-12-11T11:56:00;636.45;;;326.85;;
57231;SDS011;43488;46.934;8.276;2022-12-11T11:59:18;639.80;;;410.85;;
57231;SDS011;43488;46.934;8.276;2022-12-11T12:01:45;634.83;;;329.35;;
57231;SDS011;43488;46.934;8.276;2022-12-11T12:04:13;648.50;;;343.08;;
57231;SDS011;43488;46.934;8.276;2022-12-11T12:15:43;622.22;;;380.42;;
57231;SDS011;43488;46.934;8.276;2022-12-11T12:21:34;621.47;;;355.25;;
57231;SDS011;43488;46.934;8.276;2022-12-11T12:24:11;647.60;;;246.23;;
57231;SDS011;43488;46.934;8.276;2022-12-11T12:35:39;539.13;;;324.05;;
57231;SDS011;43488;46.934;8.276;2022-12-11T12:38:39;531.58;;;303.15;;
57231;SDS011;43488;46.934;8.276;2022-12-11T12:44:42;589.33;;;257.50;;
57231;SDS011;43488;46.934;8.276;2022-12-11T12:47:36;601.95;;;384.02;;
57231;SDS011;43488;46.934;8.276;2022-12-11T12:50:14;617.65;;;296.83;;
57231;SDS011;43488;46.934;8.276;2022-12-11T12:52:48;606.00;;;278.07;;
57231;SDS011;43488;46.934;8.276;2022-12-11T12:55:23;615.73;;;406.17;;
57231;SDS011;43488;46.934;8.276;2022-12-11T12:57:58;632.72;;;360.00;;
57231;SDS011;43488;46.934;8.276;2022-12-11T13:00:33;604.30;;;412.52;;
57231;SDS011;43488;46.934;8.276;2022-12-11T13:03:19;606.42;;;403.38;;
57231;SDS011;43488;46.934;8.276;2022-12-11T13:08:41;618.17;;;428.23;;
57231;SDS011;43488;46.934;8.276;2022-12-11T13:11:15;625.20;;;351.13;;
57231;SDS011;43488;46.934;8.276;2022-12-11T13:13:59;629.80;;;344.43;;
57231;SDS011;43488;46.934;8.276;2022-12-11T13:16:37;619.03;;;410.50;;
57231;SDS011;43488;46.934;8.276;2022-12-11T13:21:56;622.92;;;324.60;;
57231;SDS011;43488;46.934;8.276;2022-12-11T13:24:57;620.75;;;310.80;;
57231;SDS011;43488;46.934;8.276;2022-12-11T13:27:47;616.47;;;324.88;;
57231;SDS011;43488;46.934;8.276;2022-12-11T13:35:31;573.50;;;254.13;;
57231;SDS011;43488;46.934;8.276;2022-12-11T13:38:02;537.90;;;335.13;;
57231;SDS011;43488;46.934;8.276;2022-12-11T13:40:36;549.92;;;227.68;;
57231;SDS011;43488;46.934;8.276;2022-12-11T13:43:11;532.10;;;338.40;;
57231;SDS011;43488;46.934;8.276;2022-12-11T13:46:02;519.15;;;331.15;;
57231;SDS011;43488;46.934;8.276;2022-12-11T13:48:53;525.58;;;359.13;;
57231;SDS011;43488;46.934;8.276;2022-12-11T13:54:12;516.20;;;345.92;;
57231;SDS011;43488;46.934;8.276;2022-12-11T13:57:02;520.15;;;256.92;;
57231;SDS011;43488;46.934;8.276;2022-12-11T13:59:50;495.58;;;330.95;;
57231;SDS011;43488;46.934;8.276;2022-12-11T14:02:21;503.58;;;338.63;;
57231;SDS011;43488;46.934;8.276;2022-12-11T14:04:58;510.88;;;239.48;;
57231;SDS011;43488;46.934;8.276;2022-12-11T14:07:35;512.15;;;247.45;;
57231;SDS011;43488;46.934;8.276;2022-12-11T14:12:58;490.55;;;339.63;;
57231;SDS011;43488;46.934;8.276;2022-12-11T14:15:31;508.42;;;238.05;;
57231;SDS011;43488;46.934;8.276;2022-12-11T14:18:01;500.17;;;237.93;;
57231;SDS011;43488;46.934;8.276;2022-12-11T14:20:31;499.17;;;241.32;;
57231;SDS011;43488;46.934;8.276;2022-12-11T14:23:03;509.25;;;260.27;;
57231;SDS011;43488;46.934;8.276;2022-12-11T14:25:52;484.90;;;234.48;;
57231;SDS011;43488;46.934;8.276;2022-12-11T14:28:23;476.27;;;224.15;;
57231;SDS011;43488;46.934;8.276;2022-12-11T14:30:54;475.33;;;226.00;;
57231;SDS011;43488;46.934;8.276;2022-12-11T14:33:30;461.35;;;217.82;;
57231;SDS011;43488;46.934;8.276;2022-12-11T14:36:08;438.60;;;296.38;;
57231;SDS011;43488;46.934;8.276;2022-12-11T14:38:59;442.67;;;316.13;;
57231;SDS011;43488;46.934;8.276;2022-12-11T14:44:14;472.95;;;230.90;;
57231;SDS011;43488;46.934;8.276;2022-12-11T14:49:22;464.73;;;334.17;;
57231;SDS011;43488;46.934;8.276;2022-12-11T14:52:15;474.42;;;236.30;;
57231;SDS011;43488;46.934;8.276;2022-12-11T14:54:49;442.38;;;317.77;;
57231;SDS011;43488;46.934;8.276;2022-12-11T14:57:23;469.92;;;229.77;;
57231;SDS011;43488;46.934;8.276;2022-12-11T14:59:55;430.90;;;304.40;;
57231;SDS011;43488;46.934;8.276;2022-12-11T15:04:57;479.52;;;253.02;;
57231;SDS011;43488;46.934;8.276;2022-12-11T15:07:53;439.63;;;318.38;;
57231;SDS011;43488;46.934;8.276;2022-12-11T15:13:38;408.77;;;294.25;;
57231;SDS011;43488;46.934;8.276;2022-12-11T15:16:19;437.70;;;317.52;;
57231;SDS011;43488;46.934;8.276;2022-12-11T15:18:50;464.55;;;231.27;;
57231;SDS011;43488;46.934;8.276;2022-12-11T15:21:28;455.17;;;219.43;;
57231;SDS011;43488;46.934;8.276;2022-12-11T15:23:58;444.48;;;314.50;;
57231;SDS011;43488;46.934;8.276;2022-12-11T15:26:40;473.77;;;241.40;;
57231;SDS011;43488;46.934;8.276;2022-12-11T15:29:33;432.63;;;310.70;;
57231;SDS011;43488;46.934;8.276;2022-12-11T15:34:50;450.42;;;322.48;;
57231;SDS011;43488;46.934;8.276;2022-12-11T15:39:59;456.90;;;233.38;;
57231;SDS011;43488;46.934;8.276;2022-12-11T15:42:38;452.65;;;330.05;;
57231;SDS011;43488;46.934;8.276;2022-12-11T15:45:08;442.27;;;311.17;;
57231;SDS011;43488;46.934;8.276;2022-12-11T15:47:48;469.70;;;232.02;;
57231;SDS011;43488;46.934;8.276;2022-12-11T15:50:24;487.98;;;255.10;;
57231;SDS011;43488;46.934;8.276;2022-12-11T15:52:54;461.98;;;231.73;;
57231;SDS011;43488;46.934;8.276;2022-12-11T15:55:24;462.80;;;231.70;;
57231;SDS011;43488;46.934;8.276;2022-12-11T15:58:06;440.80;;;322.83;;
57231;SDS011;43488;46.934;8.276;2022-12-11T16:00:43;456.35;;;341.05;;
57231;SDS011;43488;46.934;8.276;2022-12-11T16:03:11;438.02;;;314.88;;
57231;SDS011;43488;46.934;8.276;2022-12-11T16:05:45;440.35;;;326.05;;
57231;SDS011;43488;46.934;8.276;2022-12-11T16:08:15;445.92;;;324.63;;
57231;SDS011;43488;46.934;8.276;2022-12-11T16:10:46;466.92;;;238.75;;
57231;SDS011;43488;46.934;8.276;2022-12-11T16:13:13;435.80;;;313.15;;
57231;SDS011;43488;46.934;8.276;2022-12-11T16:15:45;480.30;;;256.88;;
57231;SDS011;43488;46.934;8.276;2022-12-11T16:18:15;465.70;;;238.32;;
57231;SDS011;43488;46.934;8.276;2022-12-11T16:20:47;475.23;;;249.32;;
57231;SDS011;43488;46.934;8.276;2022-12-11T16:23:16;477.98;;;247.93;;
57231;SDS011;43488;46.934;8.276;2022-12-11T16:25:45;461.15;;;321.13;;